createdAt,value
2022-09-23T00:00:50.152Z,84.19
2022-09-23T00:01:50.525Z,83.88
2022-09-23T00:02:50.877Z,83.88
2022-09-23T00:03:51.225Z,83.68
2022-09-23T00:04:51.571Z,83.88
2022-09-23T00:05:51.982Z,83.58
2022-09-23T00:06:52.323Z,83.68
2022-09-23T00:07:52.685Z,83.68
2022-09-23T00:08:53.043Z,83.68
2022-09-23T00:09:53.394Z,83.78
2022-09-23T00:10:53.754Z,83.98
2022-09-23T00:11:54.103Z,83.68
2022-09-23T00:12:54.479Z,83.68
2022-09-23T00:13:54.828Z,83.68
2022-09-23T00:14:55.168Z,83.58
2022-09-23T00:15:55.534Z,83.37
2022-09-23T00:16:55.913Z,83.37
2022-09-23T00:17:56.243Z,83.17
2022-09-23T00:18:56.605Z,83.27
2022-09-23T00:19:56.954Z,83.17
2022-09-23T00:20:57.326Z,83.17
2022-09-23T00:21:57.690Z,83.17
2022-09-23T00:22:58.036Z,83.27
2022-09-23T00:23:58.443Z,83.27
2022-09-23T00:24:58.757Z,83.06
2022-09-23T00:25:59.138Z,83.06
2022-09-23T00:26:59.474Z,83.06
2022-09-23T00:27:59.853Z,83.06
2022-09-23T00:29:00.199Z,83.06
2022-09-23T00:30:00.591Z,83.17
2022-09-23T00:31:01.001Z,83.17
2022-09-23T00:32:01.311Z,83.06
2022-09-23T00:33:01.666Z,83.06
2022-09-23T00:34:02.009Z,83.06
2022-09-23T00:35:02.407Z,83.06
2022-09-23T00:36:02.727Z,83.27
2022-09-23T00:37:03.074Z,82.86
2022-09-23T00:38:03.424Z,82.86
2022-09-23T00:39:04.558Z,82.86
2022-09-23T00:40:04.189Z,82.86
2022-09-23T00:41:04.524Z,82.86
2022-09-23T00:42:04.867Z,82.86
2022-09-23T00:43:05.207Z,82.86
2022-09-23T00:44:05.587Z,82.96
2022-09-23T00:45:05.928Z,83.20
2022-09-23T00:46:06.336Z,83.20
2022-09-23T00:47:06.645Z,83.10
2022-09-23T00:48:06.997Z,83.00
2022-09-23T00:49:07.369Z,83.10
2022-09-23T00:50:07.715Z,83.00
2022-09-23T00:51:08.106Z,83.10
2022-09-23T00:52:08.409Z,83.31
2022-09-23T00:53:08.754Z,83.20
2022-09-23T00:54:09.095Z,83.10
2022-09-23T00:55:09.455Z,83.41
2022-09-23T00:56:09.820Z,83.72
2022-09-23T00:57:10.168Z,83.82
2022-09-23T00:58:10.519Z,83.92
2022-09-23T00:59:10.873Z,83.82
2022-09-23T01:00:11.239Z,83.82
2022-09-23T01:01:11.648Z,83.82
2022-09-23T01:02:12.037Z,84.17
2022-09-23T01:03:12.292Z,84.17
2022-09-23T01:04:12.643Z,84.06
2022-09-23T01:05:13.020Z,83.82
2022-09-23T01:06:13.386Z,83.72
2022-09-23T01:07:14.255Z,83.82
2022-09-23T01:08:14.092Z,83.82
2022-09-23T01:09:14.445Z,83.92
2022-09-23T01:10:14.822Z,84.06
2022-09-23T01:11:15.181Z,84.06
2022-09-23T01:12:15.513Z,84.06
2022-09-23T01:13:15.864Z,84.37
2022-09-23T01:14:16.246Z,84.37
2022-09-23T01:15:16.578Z,84.37
2022-09-23T01:16:17.048Z,84.47
2022-09-23T01:17:17.318Z,84.47
2022-09-23T01:18:17.691Z,84.47
2022-09-23T01:19:18.065Z,84.47
2022-09-23T01:20:18.431Z,84.47
2022-09-23T01:21:18.813Z,84.68
2022-09-23T01:22:19.148Z,84.78
2022-09-23T01:23:19.509Z,84.68
2022-09-23T01:24:19.878Z,84.68
2022-09-23T01:25:20.245Z,84.58
2022-09-23T01:26:20.629Z,84.78
2022-09-23T01:27:20.951Z,84.78
2022-09-23T01:28:21.392Z,84.68
2022-09-23T01:29:21.680Z,84.47
2022-09-23T01:30:22.038Z,84.58
2022-09-23T01:31:22.497Z,84.58
2022-09-23T01:32:22.767Z,84.47
2022-09-23T01:33:23.099Z,84.58
2022-09-23T01:34:23.443Z,84.37
2022-09-23T01:35:23.776Z,84.37
2022-09-23T01:36:24.165Z,84.27
2022-09-23T01:37:24.505Z,84.37
2022-09-23T01:38:24.855Z,84.58
2022-09-23T01:39:25.214Z,84.68
2022-09-23T01:40:25.633Z,84.58
2022-09-23T01:41:26.358Z,84.58
2022-09-23T01:42:26.310Z,84.78
2022-09-23T01:43:26.664Z,84.78
2022-09-23T01:44:27.029Z,84.68
2022-09-23T01:45:27.392Z,84.68
2022-09-23T01:46:27.777Z,84.78
2022-09-23T01:47:28.109Z,84.78
2022-09-23T01:48:28.501Z,84.88
2022-09-23T01:49:28.810Z,84.78
2022-09-23T01:50:29.134Z,84.99
2022-09-23T01:51:29.552Z,84.99
2022-09-23T01:52:29.802Z,84.99
2022-09-23T01:53:30.170Z,85.23
2022-09-23T01:54:30.548Z,84.99
2022-09-23T01:55:30.880Z,85.09
2022-09-23T01:56:31.282Z,85.19
2022-09-23T01:57:31.594Z,84.88
2022-09-23T01:58:31.970Z,84.68
2022-09-23T01:59:32.329Z,84.88
2022-09-23T02:00:32.664Z,84.78
2022-09-23T02:01:33.173Z,84.78
2022-09-23T02:02:33.480Z,84.78
2022-09-23T02:03:33.736Z,84.99
2022-09-23T02:04:34.103Z,84.88
2022-09-23T02:05:34.465Z,84.92
2022-09-23T02:06:34.856Z,85.03
2022-09-23T02:07:35.167Z,85.03
2022-09-23T02:08:35.547Z,85.13
2022-09-23T02:09:35.866Z,84.92
2022-09-23T02:10:36.254Z,84.88
2022-09-23T02:11:36.603Z,84.88
2022-09-23T02:12:36.930Z,85.03
2022-09-23T02:13:37.294Z,85.03
2022-09-23T02:14:37.668Z,85.13
2022-09-23T02:15:38.033Z,85.03
2022-09-23T02:16:38.465Z,85.13
2022-09-23T02:17:38.727Z,85.13
2022-09-23T02:18:39.114Z,85.03
2022-09-23T02:19:39.434Z,84.78
2022-09-23T02:20:39.806Z,84.92
2022-09-23T02:21:40.182Z,84.92
2022-09-23T02:22:40.559Z,84.92
2022-09-23T02:23:40.879Z,84.88
2022-09-23T02:24:41.250Z,84.78
2022-09-23T02:25:41.617Z,84.99
2022-09-23T02:26:42.003Z,85.13
2022-09-23T02:27:42.316Z,85.03
2022-09-23T02:28:42.674Z,85.23
2022-09-23T02:29:43.046Z,84.88
2022-09-23T02:30:43.416Z,84.88
2022-09-23T02:31:43.842Z,84.88
2022-09-23T02:32:44.148Z,84.88
2022-09-23T02:33:44.468Z,84.78
2022-09-23T02:34:44.840Z,84.88
2022-09-23T02:35:45.213Z,84.88
2022-09-23T02:36:45.571Z,84.88
2022-09-23T02:37:45.893Z,84.78
2022-09-23T02:38:46.261Z,84.88
2022-09-23T02:39:46.633Z,84.88
2022-09-23T02:40:47.074Z,85.03
2022-09-23T02:41:47.366Z,85.13
2022-09-23T02:42:47.700Z,85.13
2022-09-23T02:43:48.055Z,85.03
2022-09-23T02:44:48.434Z,85.13
2022-09-23T02:45:48.874Z,85.03
2022-09-23T02:46:49.149Z,84.78
2022-09-23T02:47:49.471Z,84.88
2022-09-23T02:48:49.837Z,84.78
2022-09-23T02:49:50.250Z,84.78
2022-09-23T02:50:50.601Z,84.78
2022-09-23T02:51:50.989Z,84.88
2022-09-23T02:52:51.284Z,84.88
2022-09-23T02:53:51.610Z,84.88
2022-09-23T02:54:51.980Z,85.09
2022-09-23T02:55:52.354Z,84.99
2022-09-23T02:56:52.755Z,85.13
2022-09-23T02:57:53.078Z,85.13
2022-09-23T02:58:53.434Z,85.03
2022-09-23T02:59:53.827Z,84.99
2022-09-23T03:00:54.243Z,84.99
2022-09-23T03:01:54.573Z,84.99
2022-09-23T03:02:54.868Z,85.13
2022-09-23T03:03:55.233Z,85.13
2022-09-23T03:04:55.613Z,85.03
2022-09-23T03:05:55.969Z,85.03
2022-09-23T03:06:56.315Z,85.13
2022-09-23T03:07:56.665Z,85.03
2022-09-23T03:08:57.036Z,85.03
2022-09-23T03:09:57.394Z,85.13
2022-09-23T03:10:57.769Z,85.13
2022-09-23T03:11:58.121Z,85.13
2022-09-23T03:12:58.490Z,85.13
2022-09-23T03:13:58.814Z,85.13
2022-09-23T03:14:59.174Z,85.23
2022-09-23T03:15:59.557Z,85.23
2022-09-23T03:17:00.388Z,85.23
2022-09-23T03:18:00.207Z,85.33
2022-09-23T03:19:00.577Z,85.23
2022-09-23T03:20:00.948Z,85.33
2022-09-23T03:21:01.327Z,85.33
2022-09-23T03:22:01.701Z,85.54
2022-09-23T03:23:02.036Z,85.44
2022-09-23T03:24:02.422Z,85.64
2022-09-23T03:25:02.713Z,85.74
2022-09-23T03:26:03.094Z,85.64
2022-09-23T03:27:03.465Z,85.74
2022-09-23T03:28:03.787Z,85.95
2022-09-23T03:29:04.150Z,85.85
2022-09-23T03:30:04.517Z,85.95
2022-09-23T03:31:04.889Z,85.95
2022-09-23T03:32:05.276Z,86.05
2022-09-23T03:33:05.565Z,86.15
2022-09-23T03:34:05.931Z,86.30
2022-09-23T03:35:06.294Z,86.25
2022-09-23T03:36:06.660Z,86.19
2022-09-23T03:37:07.048Z,86.30
2022-09-23T03:38:07.370Z,86.30
2022-09-23T03:39:07.792Z,86.40
2022-09-23T03:40:08.169Z,86.50
2022-09-23T03:41:08.430Z,86.50
2022-09-23T03:42:08.808Z,86.71
2022-09-23T03:43:09.163Z,86.71
2022-09-23T03:44:09.581Z,86.71
2022-09-23T03:45:09.870Z,86.60
2022-09-23T03:46:10.276Z,86.91
2022-09-23T03:47:11.122Z,86.81
2022-09-23T03:48:10.939Z,86.81
2022-09-23T03:49:11.263Z,86.81
2022-09-23T03:50:11.644Z,86.91
2022-09-23T03:51:11.966Z,86.91
2022-09-23T03:52:12.427Z,87.02
2022-09-23T03:53:12.681Z,87.12
2022-09-23T03:54:13.044Z,87.12
2022-09-23T03:55:13.403Z,87.02
2022-09-23T03:56:13.773Z,87.12
2022-09-23T03:57:14.149Z,87.22
2022-09-23T03:58:14.510Z,87.12
2022-09-23T03:59:14.873Z,87.22
2022-09-23T04:00:15.245Z,87.32
2022-09-23T04:01:15.698Z,87.46
2022-09-23T04:02:16.039Z,87.67
2022-09-23T04:03:16.330Z,87.67
2022-09-23T04:04:16.701Z,87.77
2022-09-23T04:05:17.071Z,87.77
2022-09-23T04:06:17.451Z,87.88
2022-09-23T04:07:17.822Z,87.88
2022-09-23T04:08:18.183Z,88.08
2022-09-23T04:09:18.535Z,88.08
2022-09-23T04:10:18.897Z,88.18
2022-09-23T04:11:19.282Z,88.29
2022-09-23T04:12:19.653Z,88.29
2022-09-23T04:13:19.986Z,88.39
2022-09-23T04:14:20.315Z,88.39
2022-09-23T04:15:20.680Z,88.49
2022-09-23T04:16:21.099Z,88.39
2022-09-23T04:17:21.412Z,88.49
2022-09-23T04:18:21.738Z,88.39
2022-09-23T04:19:22.106Z,88.39
2022-09-23T04:20:22.479Z,88.39
2022-09-23T04:21:22.831Z,88.39
2022-09-23T04:22:23.223Z,88.59
2022-09-23T04:23:23.547Z,88.70
2022-09-23T04:24:23.915Z,88.74
2022-09-23T04:25:24.282Z,88.74
2022-09-23T04:26:24.655Z,88.74
2022-09-23T04:27:25.037Z,88.95
2022-09-23T04:28:25.384Z,89.04
2022-09-23T04:29:25.726Z,89.04
2022-09-23T04:30:26.084Z,89.04
2022-09-23T04:31:26.475Z,89.15
2022-09-23T04:32:26.739Z,89.36
2022-09-23T04:33:26.946Z,89.46
2022-09-23T04:34:27.255Z,89.36
2022-09-23T04:35:27.550Z,89.46
2022-09-23T04:36:27.718Z,89.56
2022-09-23T04:37:28.159Z,89.56
2022-09-23T04:38:28.362Z,89.46
2022-09-23T04:39:28.628Z,89.56
2022-09-23T04:40:28.820Z,89.56
2022-09-23T04:41:29.063Z,89.56
2022-09-23T04:42:29.378Z,89.76
2022-09-23T04:43:29.657Z,89.66
2022-09-23T04:44:29.956Z,89.76
2022-09-23T04:45:30.237Z,89.87
2022-09-23T04:46:30.505Z,89.97
2022-09-23T04:47:30.578Z,89.66
2022-09-23T04:48:30.865Z,89.66
2022-09-23T04:49:31.153Z,89.87
2022-09-23T04:50:31.326Z,89.97
2022-09-23T04:51:31.618Z,89.87
2022-09-23T04:52:31.964Z,90.08
2022-09-23T04:53:32.191Z,89.76
2022-09-23T04:54:32.488Z,89.76
2022-09-23T04:55:32.814Z,89.87
2022-09-23T04:56:33.074Z,89.97
2022-09-23T04:57:33.386Z,90.18
2022-09-23T04:58:33.532Z,90.08
2022-09-23T04:59:33.819Z,90.18
2022-09-23T05:00:34.155Z,90.32
2022-09-23T05:01:34.546Z,90.38
2022-09-23T05:02:34.642Z,90.42
2022-09-23T05:03:34.734Z,90.32
2022-09-23T05:04:35.023Z,90.53
2022-09-23T05:05:35.195Z,90.53
2022-09-23T05:06:35.378Z,90.53
2022-09-23T05:07:35.562Z,90.53
2022-09-23T05:08:35.717Z,90.73
2022-09-23T05:09:35.900Z,90.94
2022-09-23T05:10:36.181Z,90.94
2022-09-23T05:11:36.370Z,91.25
2022-09-23T05:12:36.567Z,91.35
2022-09-23T05:13:36.714Z,91.45
2022-09-23T05:14:37.009Z,91.45
2022-09-23T05:15:37.195Z,91.66
2022-09-23T05:16:37.512Z,91.66
2022-09-23T05:17:37.679Z,91.76
2022-09-23T05:18:37.848Z,91.66
2022-09-23T05:19:38.130Z,91.91
2022-09-23T05:20:38.315Z,91.86
2022-09-23T05:21:38.599Z,91.76
2022-09-23T05:22:38.803Z,91.80
2022-09-23T05:23:39.067Z,91.91
2022-09-23T05:24:39.243Z,92.01
2022-09-23T05:25:39.541Z,91.91
2022-09-23T05:26:40.418Z,91.91
2022-09-23T05:27:39.917Z,92.01
2022-09-23T05:28:40.075Z,92.07
2022-09-23T05:29:40.256Z,91.91
2022-09-23T05:30:40.440Z,91.97
2022-09-23T05:31:40.780Z,91.97
2022-09-23T05:32:40.924Z,91.86
2022-09-23T05:33:41.201Z,91.76
2022-09-23T05:34:41.377Z,91.66
2022-09-23T05:35:41.541Z,91.76
2022-09-23T05:36:41.725Z,91.66
2022-09-23T05:37:42.018Z,91.66
2022-09-23T05:38:42.211Z,91.66
2022-09-23T05:39:42.478Z,91.76
2022-09-23T05:40:42.763Z,91.76
2022-09-23T05:41:42.937Z,92.07
2022-09-23T05:42:43.250Z,92.27
2022-09-23T05:43:43.427Z,91.45
2022-09-23T05:44:43.606Z,91.45
2022-09-23T05:45:43.792Z,91.66
2022-09-23T05:46:44.019Z,91.55
2022-09-23T05:47:44.293Z,91.35
2022-09-23T05:48:44.600Z,91.35
2022-09-23T05:49:59.145Z,91.45
2022-09-23T05:50:44.949Z,91.55
2022-09-23T05:51:45.130Z,91.35
2022-09-23T05:52:45.343Z,91.35
2022-09-23T05:53:45.515Z,91.55
2022-09-23T05:54:45.648Z,91.35
2022-09-23T05:55:45.820Z,91.55
2022-09-23T05:56:46.112Z,91.55
2022-09-23T05:57:46.957Z,91.45
2022-09-23T05:58:46.591Z,91.55
2022-09-23T05:59:46.751Z,91.35
2022-09-23T06:00:47.054Z,91.35
2022-09-23T06:01:47.299Z,91.35
2022-09-23T06:02:47.431Z,91.35
2022-09-23T06:03:47.564Z,91.55
2022-09-23T06:04:47.746Z,91.55
2022-09-23T06:05:47.904Z,91.66
2022-09-23T06:06:48.104Z,91.76
2022-09-23T06:07:48.277Z,91.66
2022-09-23T06:08:48.448Z,91.76
2022-09-23T06:09:48.617Z,91.66
2022-09-23T06:10:53.592Z,91.66
2022-09-23T06:11:48.978Z,91.86
2022-09-23T06:12:49.170Z,91.86
2022-09-23T06:13:49.414Z,91.61
2022-09-23T06:14:49.515Z,91.66
2022-09-23T06:15:49.843Z,91.55
2022-09-23T06:16:50.000Z,91.55
2022-09-23T06:17:50.316Z,91.55
2022-09-23T06:18:50.475Z,91.86
2022-09-23T06:19:50.637Z,91.66
2022-09-23T06:20:50.822Z,91.66
2022-09-23T06:21:50.973Z,91.66
2022-09-23T06:22:55.197Z,91.76
2022-09-23T06:23:55.522Z,91.76
2022-09-23T06:24:51.536Z,91.97
2022-09-23T06:25:51.690Z,91.97
2022-09-23T06:26:51.878Z,91.86
2022-09-23T06:27:52.221Z,91.86
2022-09-23T06:28:52.374Z,91.97
2022-09-23T06:29:53.073Z,91.86
2022-09-23T06:30:52.841Z,91.86
2022-09-23T06:31:52.989Z,91.76
2022-09-23T06:32:53.115Z,91.86
2022-09-23T06:34:03.027Z,91.76
2022-09-23T06:34:53.461Z,91.86
2022-09-23T06:35:59.314Z,91.66
2022-09-23T06:36:53.854Z,91.61
2022-09-23T06:37:54.026Z,91.86
2022-09-23T06:38:54.183Z,91.72
2022-09-23T06:39:54.345Z,91.82
2022-09-23T06:40:54.771Z,91.82
2022-09-23T06:41:54.954Z,91.93
2022-09-23T06:42:55.429Z,91.93
2022-09-23T06:43:55.931Z,91.93
2022-09-23T06:44:55.605Z,92.13
2022-09-23T06:45:55.763Z,91.93
2022-09-23T06:46:55.999Z,91.93
2022-09-23T06:47:56.173Z,91.82
2022-09-23T06:48:56.298Z,91.72
2022-09-23T06:49:56.602Z,91.93
2022-09-23T06:50:56.796Z,91.72
2022-09-23T06:51:56.949Z,91.72
2022-09-23T06:52:57.198Z,91.72
2022-09-23T06:53:57.325Z,91.41
2022-09-23T06:54:57.496Z,91.27
2022-09-23T06:55:57.656Z,91.16
2022-09-23T06:56:57.845Z,91.06
2022-09-23T06:57:58.029Z,90.95
2022-09-23T06:58:58.195Z,90.75
2022-09-23T06:59:58.494Z,90.44
2022-09-23T07:01:00.007Z,90.55
2022-09-23T07:01:59.095Z,90.40
2022-09-23T07:02:59.241Z,90.30
2022-09-23T07:03:59.366Z,90.30
2022-09-23T07:04:59.503Z,89.89
2022-09-23T07:05:59.686Z,89.78
2022-09-23T07:07:00.394Z,89.64
2022-09-23T07:08:00.084Z,89.43
2022-09-23T07:09:00.233Z,89.64
2022-09-23T07:10:00.407Z,89.33
2022-09-23T07:11:00.569Z,88.88
2022-09-23T07:12:00.728Z,88.68
2022-09-23T07:13:00.919Z,88.47
2022-09-23T07:14:01.102Z,88.37
2022-09-23T07:15:01.849Z,88.43
2022-09-23T07:16:01.574Z,87.41
2022-09-23T07:17:01.689Z,87.61
2022-09-23T07:18:01.888Z,87.82
2022-09-23T07:19:02.145Z,86.85
2022-09-23T07:20:02.274Z,86.75
2022-09-23T07:21:02.468Z,86.10
2022-09-23T07:22:02.655Z,85.69
2022-09-23T07:23:03.197Z,85.55
2022-09-23T07:24:03.030Z,85.34
2022-09-23T07:25:03.231Z,84.69
2022-09-23T07:26:03.417Z,84.17
2022-09-23T07:27:03.620Z,84.17
2022-09-23T07:28:03.825Z,83.73
2022-09-23T07:29:03.971Z,83.56
2022-09-23T07:30:04.213Z,83.52
2022-09-23T07:31:04.410Z,83.32
2022-09-23T07:32:13.214Z,82.56
2022-09-23T07:33:14.805Z,82.77
2022-09-23T07:34:05.018Z,82.01
2022-09-23T07:35:05.105Z,81.71
2022-09-23T07:36:05.322Z,81.81
2022-09-23T07:37:05.500Z,81.51
2022-09-23T07:38:05.708Z,81.05
2022-09-23T07:39:05.885Z,80.85
2022-09-23T07:40:06.132Z,80.55
2022-09-23T07:41:06.262Z,80.96
2022-09-23T07:42:06.446Z,80.91
2022-09-23T07:43:06.685Z,80.20
2022-09-23T07:44:06.830Z,79.90
2022-09-23T07:45:07.014Z,80.30
2022-09-23T07:46:07.246Z,80.20
2022-09-23T07:47:07.400Z,80.00
2022-09-23T07:48:08.450Z,80.27
2022-09-23T07:49:07.817Z,80.16
2022-09-23T07:50:09.017Z,79.75
2022-09-23T07:51:09.300Z,80.47
2022-09-23T07:52:08.345Z,80.16
2022-09-23T07:53:08.590Z,80.16
2022-09-23T07:54:09.022Z,79.93
2022-09-23T07:55:08.913Z,80.13
2022-09-23T07:56:09.634Z,80.43
2022-09-23T07:57:09.301Z,80.02
2022-09-23T07:58:09.546Z,79.62
2022-09-23T07:59:09.752Z,79.72
2022-09-23T08:00:09.862Z,79.82
2022-09-23T08:01:10.118Z,80.43
2022-09-23T08:02:10.239Z,80.74
2022-09-23T08:03:10.486Z,79.82
2022-09-23T08:04:10.618Z,80.54
2022-09-23T08:05:10.810Z,80.54
2022-09-23T08:06:11.028Z,80.09
2022-09-23T08:07:11.194Z,80.19
2022-09-23T08:08:11.393Z,80.09
2022-09-23T08:09:11.580Z,80.19
2022-09-23T08:10:11.755Z,80.29
2022-09-23T08:11:11.932Z,80.29
2022-09-23T08:12:15.922Z,79.79
2022-09-23T08:13:12.317Z,79.64
2022-09-23T08:14:12.510Z,79.54
2022-09-23T08:15:12.694Z,79.64
2022-09-23T08:16:12.986Z,79.54
2022-09-23T08:17:13.052Z,78.73
2022-09-23T08:18:13.254Z,79.64
2022-09-23T08:19:13.446Z,79.81
2022-09-23T08:20:13.641Z,79.61
2022-09-23T08:21:13.827Z,79.20
2022-09-23T08:22:14.017Z,79.00
2022-09-23T08:23:14.239Z,79.10
2022-09-23T08:24:14.427Z,78.55
2022-09-23T08:25:14.613Z,78.08
2022-09-23T08:26:20.879Z,77.84
2022-09-23T08:27:14.981Z,77.94
2022-09-23T08:28:15.196Z,78.45
2022-09-23T08:29:15.352Z,78.11
2022-09-23T08:30:16.457Z,77.81
2022-09-23T08:31:15.788Z,77.70
2022-09-23T08:32:15.933Z,77.50
2022-09-23T08:33:20.960Z,77.06
2022-09-23T08:34:16.323Z,77.26
2022-09-23T08:35:16.522Z,76.86
2022-09-23T08:36:16.709Z,76.95
2022-09-23T08:37:16.909Z,76.72
2022-09-23T08:38:17.116Z,76.82
2022-09-23T08:39:17.265Z,75.90
2022-09-23T08:40:17.496Z,76.37
2022-09-23T08:41:17.627Z,75.56
2022-09-23T08:42:17.812Z,74.92
2022-09-23T08:43:18.025Z,74.82
2022-09-23T08:44:18.171Z,74.92
2022-09-23T08:45:18.376Z,74.31
2022-09-23T08:46:18.610Z,74.10
2022-09-23T08:47:18.741Z,74.31
2022-09-23T08:48:18.958Z,73.29
2022-09-23T08:49:19.103Z,73.50
2022-09-23T08:50:19.296Z,73.80
2022-09-23T08:51:19.489Z,73.16
2022-09-23T08:52:19.679Z,73.06
2022-09-23T08:53:19.915Z,72.85
2022-09-23T08:54:20.057Z,72.04
2022-09-23T08:55:20.255Z,72.96
2022-09-23T08:56:20.449Z,72.85
2022-09-23T08:57:20.639Z,72.61
2022-09-23T08:58:25.648Z,71.20
2022-09-23T08:59:21.028Z,70.62
2022-09-23T09:00:21.739Z,70.92
2022-09-23T09:01:21.474Z,71.40
2022-09-23T09:02:21.635Z,71.50
2022-09-23T09:03:21.790Z,71.50
2022-09-23T09:04:22.077Z,71.20
2022-09-23T09:05:22.170Z,70.28
2022-09-23T09:06:22.369Z,71.00
2022-09-23T09:07:36.233Z,70.96
2022-09-23T09:08:22.747Z,70.76
2022-09-23T09:09:23.465Z,70.45
2022-09-23T09:10:23.071Z,69.84
2022-09-23T09:11:24.466Z,70.76
2022-09-23T09:12:23.447Z,70.52
2022-09-23T09:13:23.651Z,70.52
2022-09-23T09:14:24.026Z,70.72
2022-09-23T09:15:25.397Z,70.52
2022-09-23T09:16:48.293Z,69.68
2022-09-23T09:17:24.432Z,68.56
2022-09-23T09:18:24.630Z,68.77
2022-09-23T09:19:24.814Z,68.46
2022-09-23T09:20:25.011Z,68.26
2022-09-23T09:21:25.199Z,68.87
2022-09-23T09:22:25.426Z,68.97
2022-09-23T09:23:25.613Z,68.26
2022-09-23T09:24:25.791Z,69.17
2022-09-23T09:25:26.741Z,68.46
2022-09-23T09:26:26.178Z,68.53
2022-09-23T09:27:26.365Z,68.43
2022-09-23T09:28:26.598Z,68.84
2022-09-23T09:29:36.202Z,68.60
2022-09-23T09:30:28.322Z,66.78
2022-09-23T09:31:27.182Z,66.07
2022-09-23T09:32:27.299Z,66.67
2022-09-23T09:33:27.493Z,66.47
2022-09-23T09:34:27.689Z,66.47
2022-09-23T09:35:28.436Z,66.47
2022-09-23T09:36:30.625Z,66.61
2022-09-23T09:37:28.221Z,67.29
2022-09-23T09:38:28.444Z,66.47
2022-09-23T09:39:28.587Z,66.75
2022-09-23T09:40:28.847Z,66.85
2022-09-23T09:41:28.988Z,66.75
2022-09-23T09:42:29.186Z,65.91
2022-09-23T09:43:32.410Z,66.58
2022-09-23T09:44:29.578Z,65.51
2022-09-23T09:45:29.762Z,65.18
2022-09-23T09:46:30.024Z,64.04
2022-09-23T09:47:30.122Z,62.96
2022-09-23T09:48:30.334Z,63.13
2022-09-23T09:49:30.485Z,62.52
2022-09-23T09:50:30.683Z,63.84
2022-09-23T09:51:30.875Z,62.43
2022-09-23T09:52:31.071Z,62.32
2022-09-23T09:53:31.216Z,62.02
2022-09-23T09:54:31.406Z,61.72
2022-09-23T09:55:31.582Z,62.12
2022-09-23T09:56:31.762Z,62.02
2022-09-23T09:57:35.220Z,62.05
2022-09-23T09:58:32.165Z,62.25
2022-09-23T09:59:32.353Z,61.85
2022-09-23T10:00:32.564Z,61.32
2022-09-23T10:01:32.853Z,61.92
2022-09-23T10:02:32.987Z,61.59
2022-09-23T10:03:33.205Z,60.28
2022-09-23T10:04:33.445Z,61.21
2022-09-23T10:05:33.651Z,61.29
2022-09-23T10:06:33.812Z,60.98
2022-09-23T10:07:34.009Z,61.41
2022-09-23T10:08:34.216Z,62.02
2022-09-23T10:09:34.406Z,61.11
2022-09-23T10:10:34.654Z,61.41
2022-09-23T10:11:34.775Z,61.52
2022-09-23T10:12:34.963Z,61.39
2022-09-23T10:13:35.176Z,61.01
2022-09-23T10:14:35.363Z,61.89
2022-09-23T10:15:35.556Z,60.78
2022-09-23T10:16:35.797Z,61.99
2022-09-23T10:17:35.940Z,61.18
2022-09-23T10:18:36.150Z,60.68
2022-09-23T10:19:36.345Z,61.99
2022-09-23T10:20:36.553Z,61.29
2022-09-23T10:21:36.741Z,61.99
2022-09-23T10:22:36.934Z,62.46
2022-09-23T10:23:37.137Z,61.46
2022-09-23T10:24:37.331Z,61.36
2022-09-23T10:25:37.516Z,61.63
2022-09-23T10:26:37.740Z,60.55
2022-09-23T10:27:37.904Z,61.03
2022-09-23T10:28:38.096Z,60.22
2022-09-23T10:29:38.302Z,61.36
2022-09-23T10:30:38.558Z,60.15
2022-09-23T10:31:38.708Z,60.12
2022-09-23T10:32:38.897Z,60.42
2022-09-23T10:33:39.114Z,59.34
2022-09-23T10:34:39.308Z,60.15
2022-09-23T10:35:39.511Z,60.15
2022-09-23T10:36:44.303Z,61.05
2022-09-23T10:37:39.926Z,61.76
2022-09-23T10:38:40.137Z,61.25
2022-09-23T10:39:40.333Z,61.59
2022-09-23T10:40:40.695Z,60.58
2022-09-23T10:41:40.714Z,61.99
2022-09-23T10:42:40.944Z,61.49
2022-09-23T10:43:41.941Z,59.37
2022-09-23T10:44:41.340Z,60.41
2022-09-23T10:45:43.302Z,61.49
2022-09-23T10:46:41.806Z,60.88
2022-09-23T10:47:41.918Z,60.78
2022-09-23T10:48:42.127Z,61.49
2022-09-23T10:49:42.296Z,61.39
2022-09-23T10:50:42.517Z,61.18
2022-09-23T10:51:42.682Z,61.79
2022-09-23T10:52:42.895Z,61.89
2022-09-23T10:53:43.125Z,62.26
2022-09-23T10:54:43.294Z,61.05
2022-09-23T10:55:43.513Z,61.39
2022-09-23T10:56:43.699Z,61.25
2022-09-23T10:57:43.876Z,60.35
2022-09-23T10:58:44.123Z,61.16
2022-09-23T10:59:44.279Z,60.65
2022-09-23T11:00:44.470Z,60.85
2022-09-23T11:01:44.753Z,60.65
2022-09-23T11:02:44.880Z,61.56
2022-09-23T11:03:45.087Z,60.85
2022-09-23T11:04:45.337Z,59.24
2022-09-23T11:05:45.443Z,58.97
2022-09-23T11:06:45.672Z,59.34
2022-09-23T11:07:45.859Z,59.64
2022-09-23T11:08:46.094Z,60.75
2022-09-23T11:09:46.272Z,60.35
2022-09-23T11:10:46.929Z,59.04
2022-09-23T11:11:46.647Z,58.71
2022-09-23T11:12:46.908Z,59.52
2022-09-23T11:13:49.136Z,59.34
2022-09-23T11:14:47.323Z,58.84
2022-09-23T11:15:47.456Z,59.24
2022-09-23T11:16:47.699Z,59.77
2022-09-23T11:17:47.843Z,59.57
2022-09-23T11:18:48.075Z,59.95
2022-09-23T11:19:48.247Z,60.96
2022-09-23T11:20:48.469Z,60.45
2022-09-23T11:21:48.648Z,60.83
2022-09-23T11:22:48.858Z,58.91
2022-09-23T11:23:49.108Z,58.81
2022-09-23T11:24:49.285Z,58.61
2022-09-23T11:25:49.455Z,59.62
2022-09-23T11:26:49.669Z,58.91
2022-09-23T11:27:49.875Z,59.31
2022-09-23T11:28:50.110Z,57.63
2022-09-23T11:29:50.289Z,57.73
2022-09-23T11:30:50.545Z,57.23
2022-09-23T11:31:54.114Z,59.04
2022-09-23T11:32:50.872Z,56.92
2022-09-23T11:33:51.026Z,58.03
2022-09-23T11:34:54.334Z,58.51
2022-09-23T11:35:51.406Z,57.32
2022-09-23T11:36:51.579Z,57.73
2022-09-23T11:37:51.790Z,57.63
2022-09-23T11:38:53.485Z,57.53
2022-09-23T11:39:52.201Z,57.32
2022-09-23T11:40:52.421Z,56.92
2022-09-23T11:41:52.594Z,58.34
2022-09-23T11:42:52.770Z,56.42
2022-09-23T11:43:53.006Z,56.52
2022-09-23T11:44:53.191Z,57.83
2022-09-23T11:45:53.395Z,57.43
2022-09-23T11:46:53.550Z,56.52
2022-09-23T11:47:53.749Z,56.22
2022-09-23T11:48:54.015Z,55.91
2022-09-23T11:49:54.155Z,56.72
2022-09-23T11:50:54.329Z,56.40
2022-09-23T11:51:54.529Z,55.71
2022-09-23T11:52:54.703Z,56.70
2022-09-23T11:53:54.916Z,57.20
2022-09-23T11:54:55.178Z,57.20
2022-09-23T11:55:58.209Z,57.10
2022-09-23T11:56:55.486Z,57.50
2022-09-23T11:57:55.668Z,57.57
2022-09-23T11:58:59.747Z,57.68
2022-09-23T11:59:56.086Z,57.28
2022-09-23T12:01:00.768Z,56.87
2022-09-23T12:01:56.637Z,57.45
2022-09-23T12:03:04.715Z,57.15
2022-09-23T12:03:57.559Z,55.91
2022-09-23T12:04:58.498Z,55.41
2022-09-23T12:05:57.450Z,56.11
2022-09-23T12:06:57.486Z,55.00
2022-09-23T12:07:57.693Z,56.21
2022-09-23T12:08:57.907Z,55.11
2022-09-23T12:09:58.863Z,55.61
2022-09-23T12:10:58.293Z,55.38
2022-09-23T12:11:58.484Z,55.68
2022-09-23T12:12:58.675Z,55.18
2022-09-23T12:13:58.882Z,54.75
2022-09-23T12:14:59.085Z,54.48
2022-09-23T12:15:59.286Z,53.80
2022-09-23T12:16:59.543Z,55.38
2022-09-23T12:17:59.684Z,54.98
2022-09-23T12:18:59.903Z,55.31
2022-09-23T12:20:00.109Z,55.48
2022-09-23T12:21:00.300Z,56.62
2022-09-23T12:22:00.494Z,56.01
2022-09-23T12:23:00.686Z,54.60
2022-09-23T12:24:00.914Z,54.20
2022-09-23T12:25:01.077Z,55.00
2022-09-23T12:26:01.279Z,54.40
2022-09-23T12:27:01.476Z,54.73
2022-09-23T12:28:01.665Z,55.83
2022-09-23T12:29:01.875Z,55.43
2022-09-23T12:30:02.045Z,54.73
2022-09-23T12:31:02.277Z,55.11
2022-09-23T12:32:02.438Z,54.20
2022-09-23T12:33:02.618Z,55.31
2022-09-23T12:34:02.875Z,54.80
2022-09-23T12:35:03.025Z,55.51
2022-09-23T12:36:03.216Z,54.91
2022-09-23T12:37:03.400Z,54.68
2022-09-23T12:38:03.599Z,55.41
2022-09-23T12:39:03.798Z,54.40
2022-09-23T12:40:04.073Z,54.20
2022-09-23T12:41:04.179Z,54.73
2022-09-23T12:42:04.359Z,55.71
2022-09-23T12:43:04.538Z,55.23
2022-09-23T12:44:04.774Z,54.60
2022-09-23T12:45:04.950Z,54.10
2022-09-23T12:46:05.130Z,54.10
2022-09-23T12:47:05.281Z,54.20
2022-09-23T12:48:05.491Z,54.00
2022-09-23T12:49:05.712Z,54.10
2022-09-23T12:50:05.884Z,54.53
2022-09-23T12:51:06.101Z,55.11
2022-09-23T12:52:06.337Z,54.91
2022-09-23T12:53:06.594Z,54.93
2022-09-23T12:54:06.810Z,55.03
2022-09-23T12:55:06.913Z,55.23
2022-09-23T12:56:07.127Z,54.43